Time;durP1;ratioP1;P1;durP2;ratioP2;P2;SDS_P1;SDS_P2;PMS_P1;PMS_P2;Temp;Humidity;BMP_temperature;BMP_pressure;BME280_temperature;BME280_humidity;BME280_pressure;Samples;Min_cycle;Max_cycle;Signal;HPM_P1;HPM_P2
2023/08/19 00:01:39;;;;;;;1.75;1.65;;;;;;;;;;5016550;28;20411;-65
2023/08/19 00:04:05;;;;;;;1.75;1.65;;;;;;;;;;5017222;28;20187;-65
2023/08/19 00:06:33;;;;;;;2.10;1.90;;;;;;;;;;5015559;28;20049;-65
2023/08/19 00:09:01;;;;;;;2.33;2.22;;;;;;;;;;5014539;28;20073;-65
2023/08/19 00:11:27;;;;;;;1.83;1.73;;;;;;;;;;5014773;28;20108;-65
2023/08/19 00:13:53;;;;;;;1.95;1.85;;;;;;;;;;5016423;28;20087;-65
2023/08/19 00:16:20;;;;;;;1.75;1.65;;;;;;;;;;5016681;28;20041;-65
2023/08/19 00:18:46;;;;;;;1.90;1.80;;;;;;;;;;5015941;28;20048;-65
2023/08/19 00:21:12;;;;;;;1.95;1.85;;;;;;;;;;5013018;28;20038;-65
2023/08/19 00:23:38;;;;;;;1.75;1.65;;;;;;;;;;5013664;28;20388;-65
2023/08/19 00:26:04;;;;;;;2.00;1.90;;;;;;;;;;5015917;28;20042;-65
2023/08/19 00:28:30;;;;;;;2.25;2.15;;;;;;;;;;5015763;28;20064;-65
2023/08/19 00:30:56;;;;;;;2.45;2.25;;;;;;;;;;5016082;28;20045;-65
2023/08/19 00:33:23;;;;;;;1.83;1.73;;;;;;;;;;5013637;28;20045;-65
2023/08/19 00:35:52;;;;;;;2.03;1.92;;;;;;;;;;5011649;28;20666;-65
2023/08/19 00:38:18;;;;;;;1.90;1.80;;;;;;;;;;5016332;28;20080;-65
2023/08/19 00:40:44;;;;;;;2.20;2.10;;;;;;;;;;5016841;28;20048;-65
2023/08/19 00:43:10;;;;;;;1.70;1.60;;;;;;;;;;5014545;28;20045;-64
2023/08/19 00:45:41;;;;;;;2.05;1.95;;;;;;;;;;5013808;28;20103;-64
2023/08/19 00:48:07;;;;;;;1.90;1.80;;;;;;;;;;5013206;28;20133;-64
2023/08/19 00:50:33;;;;;;;1.58;1.48;;;;;;;;;;5016429;28;20068;-64
2023/08/19 00:52:59;;;;;;;2.05;1.83;;;;;;;;;;5016969;28;20045;-65
2023/08/19 00:55:25;;;;;;;2.17;2.00;;;;;;;;;;5013441;28;20041;-65
2023/08/19 00:57:51;;;;;;;2.08;1.98;;;;;;;;;;5013630;28;20092;-65
2023/08/19 01:00:17;;;;;;;1.90;1.80;;;;;;;;;;5013201;28;20583;-65
2023/08/19 01:02:44;;;;;;;2.40;2.30;;;;;;;;;;5015729;28;20092;-65
2023/08/19 01:05:11;;;;;;;2.30;2.20;;;;;;;;;;5015801;28;20049;-65
2023/08/19 01:07:36;;;;;;;2.45;2.25;;;;;;;;;;5014661;28;20046;-65
2023/08/19 01:10:05;;;;;;;2.10;2.00;;;;;;;;;;5011949;28;20042;-65
2023/08/19 01:12:42;;;;;;;2.05;1.95;;;;;;;;;;5013719;28;20053;-65
2023/08/19 01:15:21;;;;;;;1.75;1.65;;;;;;;;;;5016096;28;20049;-65
2023/08/19 01:17:49;;;;;;;1.70;1.60;;;;;;;;;;5014165;28;20668;-65
2023/08/19 01:20:15;;;;;;;1.60;1.50;;;;;;;;;;5018837;28;20077;-65
2023/08/19 01:22:46;;;;;;;1.50;1.40;;;;;;;;;;5012828;28;20050;-65
2023/08/19 01:25:12;;;;;;;1.55;1.45;;;;;;;;;;5014866;28;20048;-65
2023/08/19 01:27:38;;;;;;;2.58;2.38;;;;;;;;;;5015901;28;20064;-65
2023/08/19 01:30:05;;;;;;;1.52;1.42;;;;;;;;;;5012719;28;20041;-65
2023/08/19 01:32:31;;;;;;;1.42;1.33;;;;;;;;;;5013211;28;20038;-65
2023/08/19 01:34:57;;;;;;;1.40;1.30;;;;;;;;;;5013969;28;20046;-65
2023/08/19 01:37:43;;;;;;;2.50;2.40;;;;;;;;;;5015364;28;20048;-65
2023/08/19 01:40:11;;;;;;;1.88;1.77;;;;;;;;;;5016652;28;20061;-65
2023/08/19 01:42:37;;;;;;;1.60;1.52;;;;;;;;;;5017052;28;20142;-65
2023/08/19 01:45:04;;;;;;;1.60;1.50;;;;;;;;;;5015681;28;20041;-65
2023/08/19 01:47:30;;;;;;;1.55;1.45;;;;;;;;;;5019875;28;20049;-65
2023/08/19 01:49:57;;;;;;;2.33;2.13;;;;;;;;;;5019772;28;20052;-65
2023/08/19 01:52:23;;;;;;;2.00;1.90;;;;;;;;;;5016855;28;20049;-65
2023/08/19 01:54:49;;;;;;;1.52;1.42;;;;;;;;;;5016357;28;20088;-65
2023/08/19 01:57:15;;;;;;;1.45;1.40;;;;;;;;;;5015637;28;20491;-65
2023/08/19 01:59:41;;;;;;;1.48;1.38;;;;;;;;;;5018643;28;20080;-65
2023/08/19 02:02:07;;;;;;;1.38;1.27;;;;;;;;;;5017537;28;20125;-65
2023/08/19 02:04:33;;;;;;;1.50;1.40;;;;;;;;;;5017918;28;20060;-65
2023/08/19 02:06:59;;;;;;;1.75;1.65;;;;;;;;;;5016052;28;20644;-65
2023/08/19 02:09:25;;;;;;;1.70;1.60;;;;;;;;;;5015956;28;20045;-65
2023/08/19 02:11:51;;;;;;;1.70;1.60;;;;;;;;;;5015890;28;20078;-65
2023/08/19 02:14:17;;;;;;;1.25;1.25;;;;;;;;;;5014963;28;20076;-65
2023/08/19 02:16:43;;;;;;;1.98;1.88;;;;;;;;;;5017422;28;20041;-65
2023/08/19 02:19:09;;;;;;;1.40;1.30;;;;;;;;;;5018688;28;20053;-65
2023/08/19 02:21:35;;;;;;;1.83;1.73;;;;;;;;;;5018624;28;20038;-65
2023/08/19 02:24:01;;;;;;;1.55;1.45;;;;;;;;;;5016298;28;20042;-65
2023/08/19 02:26:27;;;;;;;1.70;1.60;;;;;;;;;;5015521;28;20046;-65
2023/08/19 02:28:53;;;;;;;1.33;1.25;;;;;;;;;;5016707;28;20037;-65
2023/08/19 02:31:19;;;;;;;1.67;1.58;;;;;;;;;;5018756;28;20104;-65
2023/08/19 02:33:46;;;;;;;1.63;1.52;;;;;;;;;;5018216;28;20502;-65
2023/08/19 02:36:13;;;;;;;3.10;2.90;;;;;;;;;;5015651;28;20045;-65
2023/08/19 02:38:39;;;;;;;2.53;2.42;;;;;;;;;;5015421;28;20384;-65
2023/08/19 02:41:05;;;;;;;3.33;3.13;;;;;;;;;;5015726;28;20042;-65
2023/08/19 02:43:31;;;;;;;2.95;2.75;;;;;;;;;;5018518;28;20125;-65
2023/08/19 02:45:57;;;;;;;3.42;3.22;;;;;;;;;;5018886;28;20076;-65
2023/08/19 02:48:23;;;;;;;2.88;2.67;;;;;;;;;;5014797;28;20081;-65
2023/08/19 02:50:53;;;;;;;3.10;2.90;;;;;;;;;;5014094;28;20042;-65
2023/08/19 02:53:19;;;;;;;3.20;3.00;;;;;;;;;;5016419;28;20052;-65
2023/08/19 02:55:45;;;;;;;3.22;3.03;;;;;;;;;;5017656;28;20446;-65
2023/08/19 02:58:13;;;;;;;2.83;2.63;;;;;;;;;;5018226;28;20049;-65
2023/08/19 03:00:39;;;;;;;2.55;2.35;;;;;;;;;;5018366;28;20466;-65
2023/08/19 03:03:06;;;;;;;2.40;2.20;;;;;;;;;;5017238;28;20472;-65
2023/08/19 03:05:41;;;;;;;2.35;2.25;;;;;;;;;;5016316;28;20045;-65
2023/08/19 03:08:08;;;;;;;1.40;1.30;;;;;;;;;;5014244;28;20447;-65
2023/08/19 03:10:34;;;;;;;1.77;1.67;;;;;;;;;;5014771;28;20050;-65
2023/08/19 03:13:00;;;;;;;1.75;1.65;;;;;;;;;;5018133;28;20454;-65
2023/08/19 03:15:26;;;;;;;2.10;2.00;;;;;;;;;;5018057;28;20041;-65
2023/08/19 03:17:53;;;;;;;2.10;2.00;;;;;;;;;;5014361;28;20100;-65
2023/08/19 03:20:19;;;;;;;2.38;2.28;;;;;;;;;;5014199;28;20050;-65
2023/08/19 03:22:45;;;;;;;2.67;2.58;;;;;;;;;;5014490;28;20038;-65
2023/08/19 03:25:11;;;;;;;3.20;3.00;;;;;;;;;;5017304;28;20559;-65
2023/08/19 03:27:37;;;;;;;2.67;2.47;;;;;;;;;;5017593;28;20121;-65
2023/08/19 03:30:04;;;;;;;2.38;2.28;;;;;;;;;;5014015;28;20041;-65
2023/08/19 03:32:30;;;;;;;2.90;2.70;;;;;;;;;;5015109;28;20045;-65
2023/08/19 03:34:56;;;;;;;2.45;2.35;;;;;;;;;;5015245;28;20042;-65
2023/08/19 03:37:23;;;;;;;3.20;3.00;;;;;;;;;;5016484;28;20103;-65
2023/08/19 03:39:49;;;;;;;4.68;4.28;;;;;;;;;;5017399;28;20049;-65
2023/08/19 03:42:15;;;;;;;3.55;3.25;;;;;;;;;;5014506;28;20087;-65
2023/08/19 03:44:41;;;;;;;3.38;3.17;;;;;;;;;;5013653;28;20041;-65
2023/08/19 03:47:10;;;;;;;3.58;3.33;;;;;;;;;;5014247;28;20045;-65
2023/08/19 03:49:36;;;;;;;4.13;3.83;;;;;;;;;;5017065;28;20037;-65
2023/08/19 03:52:02;;;;;;;3.90;3.70;;;;;;;;;;5015957;28;20099;-65
2023/08/19 03:54:28;;;;;;;3.55;3.35;;;;;;;;;;5015445;28;20033;-65
2023/08/19 03:56:54;;;;;;;3.70;3.50;;;;;;;;;;5013560;28;20581;-65
2023/08/19 03:59:20;;;;;;;3.00;2.80;;;;;;;;;;5020581;28;20046;-65
2023/08/19 04:01:46;;;;;;;2.75;2.55;;;;;;;;;;5019259;28;20029;-65
2023/08/19 04:04:12;;;;;;;2.55;2.42;;;;;;;;;;5020889;28;20045;-65
2023/08/19 04:06:38;;;;;;;5.28;4.88;;;;;;;;;;5014031;28;20049;-65
2023/08/19 04:09:05;;;;;;;4.95;4.55;;;;;;;;;;5013629;28;20407;-65
2023/08/19 04:11:31;;;;;;;5.10;4.70;;;;;;;;;;5015396;28;20045;-65
2023/08/19 04:13:57;;;;;;;5.70;5.20;;;;;;;;;;5017627;28;20455;-65
2023/08/19 04:16:24;;;;;;;5.22;4.82;;;;;;;;;;5017145;28;20707;-65
2023/08/19 04:18:50;;;;;;;5.05;4.65;;;;;;;;;;5014231;28;20068;-65
2023/08/19 04:21:17;;;;;;;4.75;4.40;;;;;;;;;;5013196;28;20060;-65
2023/08/19 04:23:43;;;;;;;5.00;4.57;;;;;;;;;;5013435;28;20164;-65
2023/08/19 04:26:09;;;;;;;5.43;4.93;;;;;;;;;;5012452;28;20045;-65
2023/08/19 04:28:35;;;;;;;5.30;4.90;;;;;;;;;;5013640;28;20656;-65
2023/08/19 04:31:06;;;;;;;4.05;3.75;;;;;;;;;;5015510;28;20053;-65
2023/08/19 04:33:32;;;;;;;5.60;5.20;;;;;;;;;;5015827;28;20045;-65
2023/08/19 04:35:59;;;;;;;5.22;4.80;;;;;;;;;;5015392;28;20045;-65
2023/08/19 04:38:25;;;;;;;3.90;3.70;;;;;;;;;;5012793;28;20061;-65
2023/08/19 04:40:51;;;;;;;3.40;3.20;;;;;;;;;;5012554;28;20049;-65
2023/08/19 04:43:20;;;;;;;2.92;2.72;;;;;;;;;;5016163;28;20077;-65
2023/08/19 04:45:46;;;;;;;2.70;2.50;;;;;;;;;;5016448;28;20132;-65
2023/08/19 04:48:12;;;;;;;4.40;4.00;;;;;;;;;;5013870;28;20133;-65
2023/08/19 04:50:38;;;;;;;3.90;3.60;;;;;;;;;;5013157;28;20120;-65
2023/08/19 04:53:04;;;;;;;3.78;3.50;;;;;;;;;;5012733;28;20080;-65
2023/08/19 04:55:31;;;;;;;3.42;3.22;;;;;;;;;;5015452;28;20459;-64
2023/08/19 04:57:57;;;;;;;4.13;3.83;;;;;;;;;;5016585;28;20095;-65
2023/08/19 05:00:23;;;;;;;3.88;3.58;;;;;;;;;;5014298;28;20049;-65
2023/08/19 05:02:49;;;;;;;4.32;4.05;;;;;;;;;;5012194;28;20415;-65
2023/08/19 05:05:16;;;;;;;5.55;5.13;;;;;;;;;;5012576;28;20042;-65
2023/08/19 05:07:42;;;;;;;4.60;4.30;;;;;;;;;;5015541;28;20129;-65
2023/08/19 05:10:09;;;;;;;4.63;4.32;;;;;;;;;;5014964;28;20045;-65
2023/08/19 05:12:35;;;;;;;6.55;5.03;;;;;;;;;;5014401;28;20432;-65
2023/08/19 05:15:01;;;;;;;5.82;5.45;;;;;;;;;;5018368;28;20056;-65
2023/08/19 05:17:27;;;;;;;6.07;5.68;;;;;;;;;;5019301;28;20120;-65
2023/08/19 05:19:56;;;;;;;5.88;5.45;;;;;;;;;;5020238;28;20041;-65
2023/08/19 05:22:22;;;;;;;7.65;7.05;;;;;;;;;;5021899;28;20072;-65
2023/08/19 05:24:52;;;;;;;7.30;6.80;;;;;;;;;;5021196;28;20041;-65
2023/08/19 05:27:18;;;;;;;5.35;5.05;;;;;;;;;;5018832;28;20068;-65
2023/08/19 05:29:44;;;;;;;6.30;5.90;;;;;;;;;;5018607;28;20578;-65
2023/08/19 05:32:10;;;;;;;5.85;5.45;;;;;;;;;;5025365;28;20042;-65
2023/08/19 05:34:36;;;;;;;7.80;7.18;;;;;;;;;;5025981;28;20045;-65
2023/08/19 05:37:06;;;;;;;8.02;7.32;;;;;;;;;;5019398;28;20041;-65
2023/08/19 05:39:32;;;;;;;6.40;5.90;;;;;;;;;;5019042;28;20029;-65
2023/08/19 05:41:58;;;;;;;7.78;7.18;;;;;;;;;;5019879;28;20442;-65
2023/08/19 05:44:24;;;;;;;8.98;8.13;;;;;;;;;;5021379;28;20069;-65
2023/08/19 05:46:51;;;;;;;7.45;6.85;;;;;;;;;;5021995;28;20472;-65
2023/08/19 05:49:17;;;;;;;7.20;6.57;;;;;;;;;;5019834;28;20529;-65
2023/08/19 05:51:43;;;;;;;7.72;7.13;;;;;;;;;;5018565;28;20455;-65
2023/08/19 05:54:09;;;;;;;8.35;7.30;;;;;;;;;;5018745;28;20103;-65
2023/08/19 05:56:35;;;;;;;6.80;6.25;;;;;;;;;;5021530;28;20053;-65
2023/08/19 05:59:01;;;;;;;7.82;7.07;;;;;;;;;;5020917;28;20098;-65
2023/08/19 06:01:27;;;;;;;8.05;7.35;;;;;;;;;;5020661;28;20048;-65
2023/08/19 06:03:53;;;;;;;7.93;7.25;;;;;;;;;;5019271;28;20121;-65
2023/08/19 06:06:19;;;;;;;6.43;5.93;;;;;;;;;;5018129;28;20050;-65
2023/08/19 06:08:45;;;;;;;6.20;5.72;;;;;;;;;;5022122;28;20034;-65
2023/08/19 06:11:11;;;;;;;8.73;8.02;;;;;;;;;;5021524;28;20045;-65
2023/08/19 06:13:38;;;;;;;6.25;5.75;;;;;;;;;;5019635;28;20049;-65
2023/08/19 06:16:04;;;;;;;5.97;5.47;;;;;;;;;;5018324;28;20038;-65
2023/08/19 06:18:31;;;;;;;5.65;5.30;;;;;;;;;;5018496;28;20120;-65
2023/08/19 06:20:57;;;;;;;6.95;6.35;;;;;;;;;;5019164;28;20554;-65
2023/08/19 06:23:23;;;;;;;5.32;4.93;;;;;;;;;;5018684;28;20088;-65
2023/08/19 06:25:50;;;;;;;4.53;4.22;;;;;;;;;;5017391;28;20049;-65
2023/08/19 06:28:16;;;;;;;4.70;4.35;;;;;;;;;;5017927;28;20056;-65
2023/08/19 06:30:42;;;;;;;4.30;3.92;;;;;;;;;;5018436;28;20045;-65
2023/08/19 06:33:09;;;;;;;4.10;3.80;;;;;;;;;;5014600;28;20052;-65
2023/08/19 06:35:35;;;;;;;4.50;4.10;;;;;;;;;;5015716;28;20034;-65
2023/08/19 06:38:04;;;;;;;4.32;4.03;;;;;;;;;;5017438;28;20041;-65
2023/08/19 06:40:33;;;;;;;4.57;4.28;;;;;;;;;;5018583;28;20533;-65
2023/08/19 06:43:00;;;;;;;4.88;4.57;;;;;;;;;;5018395;28;20049;-65
2023/08/19 06:45:27;;;;;;;4.93;4.60;;;;;;;;;;5015542;28;20073;-65
2023/08/19 06:47:58;;;;;;;6.22;5.47;;;;;;;;;;5014680;28;20049;-65
2023/08/19 06:50:24;;;;;;;5.78;5.28;;;;;;;;;;5017768;28;20082;-65
2023/08/19 06:52:50;;;;;;;4.75;4.45;;;;;;;;;;5017978;28;20049;-65
2023/08/19 06:55:16;;;;;;;4.65;4.35;;;;;;;;;;5015523;28;20700;-64
2023/08/19 06:57:49;;;;;;;3.90;3.60;;;;;;;;;;5014886;28;20054;-65
2023/08/19 07:00:16;;;;;;;5.22;4.65;;;;;;;;;;5015162;28;20523;-65
2023/08/19 07:02:42;;;;;;;4.70;4.40;;;;;;;;;;5017423;28;20499;-65
2023/08/19 07:05:18;;;;;;;5.15;4.75;;;;;;;;;;5017477;28;20042;-65
2023/08/19 07:07:47;;;;;;;3.95;3.65;;;;;;;;;;5017484;28;20042;-65
2023/08/19 07:10:23;;;;;;;3.15;2.95;;;;;;;;;;5017724;28;20041;-65
2023/08/19 07:12:49;;;;;;;3.92;3.70;;;;;;;;;;5014729;28;20049;-65
2023/08/19 07:15:15;;;;;;;4.00;3.70;;;;;;;;;;5013921;28;20073;-65
2023/08/19 07:17:44;;;;;;;2.90;2.70;;;;;;;;;;5016062;28;20111;-65
2023/08/19 07:20:18;;;;;;;2.90;2.70;;;;;;;;;;5017323;28;20056;-65
2023/08/19 07:22:44;;;;;;;5.15;2.80;;;;;;;;;;5015686;28;20618;-65
2023/08/19 07:25:10;;;;;;;2.63;2.42;;;;;;;;;;5014540;28;20041;-65
2023/08/19 07:27:37;;;;;;;2.10;1.92;;;;;;;;;;5014921;28;20129;-65
2023/08/19 07:30:04;;;;;;;1.85;1.73;;;;;;;;;;5017125;28;20703;-65
2023/08/19 07:32:31;;;;;;;1.70;1.60;;;;;;;;;;5018340;28;20045;-65
2023/08/19 07:34:57;;;;;;;2.17;2.08;;;;;;;;;;5016591;28;20042;-65
2023/08/19 07:37:23;;;;;;;2.10;2.00;;;;;;;;;;5013201;28;20042;-65
2023/08/19 07:39:50;;;;;;;2.25;2.15;;;;;;;;;;5014365;28;20050;-65
2023/08/19 07:42:16;;;;;;;1.92;1.83;;;;;;;;;;5016962;28;20033;-65
2023/08/19 07:44:42;;;;;;;2.70;2.50;;;;;;;;;;5016372;28;20157;-65
2023/08/19 07:47:08;;;;;;;2.88;2.63;;;;;;;;;;5014712;28;20451;-65
2023/08/19 07:49:34;;;;;;;2.67;2.53;;;;;;;;;;5013888;28;20113;-65
2023/08/19 07:52:00;;;;;;;2.67;2.58;;;;;;;;;;5013749;28;20093;-65
2023/08/19 07:54:26;;;;;;;3.17;2.97;;;;;;;;;;5017174;28;20033;-65
2023/08/19 07:56:53;;;;;;;3.03;2.42;;;;;;;;;;5016605;28;20060;-65
2023/08/19 07:59:20;;;;;;;3.15;2.95;;;;;;;;;;5015147;28;20106;-65
2023/08/19 08:01:46;;;;;;;2.78;2.58;;;;;;;;;;5013508;28;20343;-65
2023/08/19 08:04:12;;;;;;;3.63;3.33;;;;;;;;;;5012632;28;20227;-65
2023/08/19 08:06:38;;;;;;;5.32;3.13;;;;;;;;;;5016390;28;20049;-65
2023/08/19 08:09:04;;;;;;;4.00;3.70;;;;;;;;;;5016125;28;20057;-65
2023/08/19 08:11:30;;;;;;;3.10;2.80;;;;;;;;;;5015509;28;20116;-65
2023/08/19 08:13:56;;;;;;;3.53;2.97;;;;;;;;;;5013778;28;20452;-65
2023/08/19 08:16:22;;;;;;;3.75;2.80;;;;;;;;;;5013216;28;20081;-64
2023/08/19 08:18:48;;;;;;;4.72;4.43;;;;;;;;;;5015500;28;20492;-65
2023/08/19 08:21:15;;;;;;;3.50;3.30;;;;;;;;;;5016485;28;20048;-65
2023/08/19 08:23:41;;;;;;;3.80;3.50;;;;;;;;;;5015984;28;20045;-65
2023/08/19 08:26:08;;;;;;;4.00;3.60;;;;;;;;;;5012903;28;20052;-65
2023/08/19 08:28:34;;;;;;;3.42;3.10;;;;;;;;;;5013524;28;20055;-65
2023/08/19 08:31:00;;;;;;;3.15;2.95;;;;;;;;;;5016119;28;20442;-65
2023/08/19 08:33:26;;;;;;;3.85;3.65;;;;;;;;;;5016549;28;20119;-65
2023/08/19 08:35:52;;;;;;;3.67;3.38;;;;;;;;;;5015410;28;20045;-65
2023/08/19 08:38:18;;;;;;;4.82;4.28;;;;;;;;;;5012880;28;20038;-65
2023/08/19 08:40:44;;;;;;;4.22;3.85;;;;;;;;;;5012295;28;20109;-65
2023/08/19 08:43:11;;;;;;;4.10;3.80;;;;;;;;;;5014661;28;20475;-65
2023/08/19 08:45:38;;;;;;;4.13;3.78;;;;;;;;;;5015978;28;20697;-65
2023/08/19 08:48:05;;;;;;;4.32;4.03;;;;;;;;;;5014219;28;20083;-65
2023/08/19 08:50:31;;;;;;;4.32;4.03;;;;;;;;;;5013356;28;20137;-65
2023/08/19 08:52:58;;;;;;;7.45;5.15;;;;;;;;;;5013171;28;20077;-65
2023/08/19 08:55:24;;;;;;;5.20;4.80;;;;;;;;;;5014331;28;20612;-65
2023/08/19 08:57:50;;;;;;;4.32;4.03;;;;;;;;;;5015614;28;20507;-65
2023/08/19 09:00:16;;;;;;;4.22;3.92;;;;;;;;;;5013853;28;20083;-65
2023/08/19 09:02:44;;;;;;;4.60;4.20;;;;;;;;;;5011445;28;20073;-65
2023/08/19 09:05:11;;;;;;;4.53;4.10;;;;;;;;;;5012419;28;20038;-65
2023/08/19 09:07:41;;;;;;;4.53;4.03;;;;;;;;;;5014807;28;20487;-65
2023/08/19 09:10:14;;;;;;;4.72;3.78;;;;;;;;;;5015600;28;20037;-65
2023/08/19 09:12:53;;;;;;;3.38;3.08;;;;;;;;;;5014751;28;20064;-65
2023/08/19 09:15:19;;;;;;;3.88;3.50;;;;;;;;;;5016383;28;20125;-65
2023/08/19 09:17:45;;;;;;;3.67;3.33;;;;;;;;;;5015165;28;20381;-66
2023/08/19 09:20:12;;;;;;;3.35;3.05;;;;;;;;;;5015654;28;20471;-65
2023/08/19 09:22:42;;;;;;;3.45;3.00;;;;;;;;;;5014621;28;20041;-65
2023/08/19 09:25:08;;;;;;;3.38;2.90;;;;;;;;;;5012126;28;20045;-65
2023/08/19 09:27:34;;;;;;;3.45;3.15;;;;;;;;;;5012450;28;20107;-65
2023/08/19 09:30:00;;;;;;;3.28;3.08;;;;;;;;;;5014909;28;20047;-65
2023/08/19 09:32:30;;;;;;;2.42;2.33;;;;;;;;;;5015757;28;20033;-65
2023/08/19 09:35:04;;;;;;;2.92;2.67;;;;;;;;;;5013742;28;20077;-66
2023/08/19 09:37:34;;;;;;;2.72;2.53;;;;;;;;;;5012055;28;20057;-65
2023/08/19 09:40:00;;;;;;;2.75;2.42;;;;;;;;;;5014134;28;20048;-65
2023/08/19 09:42:28;;;;;;;3.22;3.03;;;;;;;;;;5014931;28;20770;-65
2023/08/19 09:44:54;;;;;;;3.00;2.80;;;;;;;;;;5015325;28;20586;-65
2023/08/19 09:47:20;;;;;;;3.08;2.88;;;;;;;;;;5015236;28;20056;-65
2023/08/19 09:49:51;;;;;;;3.03;2.83;;;;;;;;;;5014282;28;20341;-65
2023/08/19 09:52:17;;;;;;;3.40;3.17;;;;;;;;;;5012743;28;20072;-65
2023/08/19 09:54:50;;;;;;;3.25;3.03;;;;;;;;;;5012621;28;20053;-65
2023/08/19 09:57:16;;;;;;;2.70;2.50;;;;;;;;;;5012876;28;20078;-65
2023/08/19 09:59:42;;;;;;;2.45;2.35;;;;;;;;;;5015977;28;20045;-65
2023/08/19 10:02:10;;;;;;;2.42;2.22;;;;;;;;;;5018889;28;20388;-65
2023/08/19 10:04:37;;;;;;;2.85;2.65;;;;;;;;;;5015482;28;20152;-65
2023/08/19 10:07:04;;;;;;;2.53;2.42;;;;;;;;;;5015759;28;20137;-65
2023/08/19 10:09:31;;;;;;;3.58;3.30;;;;;;;;;;5017780;28;20096;-65
2023/08/19 10:12:00;;;;;;;4.15;3.80;;;;;;;;;;5018805;28;20056;-65
2023/08/19 10:14:28;;;;;;;4.43;3.60;;;;;;;;;;5018902;28;20037;-65
2023/08/19 10:16:55;;;;;;;3.50;3.20;;;;;;;;;;5016489;28;20045;-65
2023/08/19 10:19:22;;;;;;;3.38;3.08;;;;;;;;;;5015434;28;20463;-65
2023/08/19 10:21:50;;;;;;;3.72;2.92;;;;;;;;;;5017756;28;20045;-65
2023/08/19 10:24:17;;;;;;;3.30;3.05;;;;;;;;;;5018198;28;20029;-65
2023/08/19 10:26:49;;;;;;;3.38;3.08;;;;;;;;;;5017136;28;20045;-65
2023/08/19 10:29:16;;;;;;;3.08;2.88;;;;;;;;;;5014911;28;20044;-65
2023/08/19 10:31:42;;;;;;;2.75;2.55;;;;;;;;;;5014686;28;20044;-65
2023/08/19 10:34:28;;;;;;;3.50;2.53;;;;;;;;;;5017894;28;20073;-65
2023/08/19 10:37:07;;;;;;;2.30;2.10;;;;;;;;;;5017793;28;20053;-65
2023/08/19 10:39:33;;;;;;;2.03;1.90;;;;;;;;;;5014738;28;20121;-65
2023/08/19 10:41:59;;;;;;;1.95;1.85;;;;;;;;;;5016326;28;20037;-65
2023/08/19 10:44:27;;;;;;;1.88;1.75;;;;;;;;;;5017786;28;20052;-65
2023/08/19 10:47:07;;;;;;;2.92;2.00;;;;;;;;;;5017272;28;20539;-65
2023/08/19 10:49:34;;;;;;;1.60;1.38;;;;;;;;;;5015097;28;20124;-65
2023/08/19 10:52:02;;;;;;;1.55;1.45;;;;;;;;;;5015353;28;20081;-65
2023/08/19 10:54:28;;;;;;;1.58;1.48;;;;;;;;;;5017898;28;20450;-65
2023/08/19 10:57:23;;;;;;;1.30;1.20;;;;;;;;;;5018184;28;20666;-65
2023/08/19 10:59:58;;;;;;;2.88;2.60;;;;;;;;;;5004791;28;20115;-65
2023/08/19 11:02:28;;;;;;;2.33;2.13;;;;;;;;;;5015901;28;20046;-65
2023/08/19 11:04:54;;;;;;;2.92;2.72;;;;;;;;;;5017682;28;20041;-65
2023/08/19 11:07:21;;;;;;;2.67;2.47;;;;;;;;;;5016946;28;20604;-65
2023/08/19 11:09:48;;;;;;;2.65;2.45;;;;;;;;;;5014932;28;20598;-65
2023/08/19 11:12:18;;;;;;;2.55;2.35;;;;;;;;;;5013454;28;20038;-65
2023/08/19 11:14:47;;;;;;;3.35;3.15;;;;;;;;;;5016347;28;20041;-65
2023/08/19 11:17:13;;;;;;;3.33;3.03;;;;;;;;;;5017325;28;20052;-65
2023/08/19 11:19:40;;;;;;;2.72;2.58;;;;;;;;;;5016413;28;20546;-65
2023/08/19 11:22:06;;;;;;;3.63;3.42;;;;;;;;;;5013532;28;20057;-65
2023/08/19 11:24:33;;;;;;;3.92;3.45;;;;;;;;;;5014138;28;20042;-65
2023/08/19 11:27:00;;;;;;;3.55;3.25;;;;;;;;;;5017219;28;20049;-65
2023/08/19 11:29:26;;;;;;;4.32;4.03;;;;;;;;;;5017084;28;20057;-65
2023/08/19 11:31:52;;;;;;;5.20;4.80;;;;;;;;;;5016656;28;20128;-65
2023/08/19 11:34:18;;;;;;;5.75;5.25;;;;;;;;;;5013970;28;20185;-65
2023/08/19 11:36:45;;;;;;;7.95;7.25;;;;;;;;;;5013904;28;20113;-65
2023/08/19 11:39:11;;;;;;;5.45;4.97;;;;;;;;;;5016610;28;20096;-65
2023/08/19 11:41:37;;;;;;;6.20;5.50;;;;;;;;;;5017654;28;20030;-65
2023/08/19 11:44:04;;;;;;;4.78;4.22;;;;;;;;;;5015440;28;20045;-65
2023/08/19 11:46:30;;;;;;;7.10;6.53;;;;;;;;;;5014521;28;20114;-65
2023/08/19 11:48:57;;;;;;;7.70;6.97;;;;;;;;;;5014173;28;20053;-65
2023/08/19 11:51:25;;;;;;;7.72;6.65;;;;;;;;;;5016568;28;20049;-65
2023/08/19 11:53:53;;;;;;;6.85;6.25;;;;;;;;;;5017087;28;20085;-65
2023/08/19 11:56:20;;;;;;;6.63;6.13;;;;;;;;;;5014232;28;20784;-65
2023/08/19 11:58:52;;;;;;;5.82;5.43;;;;;;;;;;5020645;28;20049;-65
2023/08/19 12:01:19;;;;;;;8.73;7.90;;;;;;;;;;5013929;28;20038;-65
2023/08/19 12:03:46;;;;;;;5.90;5.28;;;;;;;;;;5016276;28;20120;-65
2023/08/19 12:06:12;;;;;;;6.30;5.82;;;;;;;;;;5016247;28;20494;-65
2023/08/19 12:08:42;;;;;;;7.90;7.30;;;;;;;;;;5014088;28;20047;-65
2023/08/19 12:11:12;;;;;;;7.85;7.25;;;;;;;;;;5012321;28;20046;-65
2023/08/19 12:13:38;;;;;;;9.45;8.70;;;;;;;;;;5015276;28;20128;-65
2023/08/19 12:16:05;;;;;;;8.10;7.40;;;;;;;;;;5016310;28;20430;-65
2023/08/19 12:18:32;;;;;;;9.68;8.88;;;;;;;;;;5016616;28;20040;-65
2023/08/19 12:20:59;;;;;;;12.32;11.07;;;;;;;;;;5013892;28;20488;-65
2023/08/19 12:23:25;;;;;;;15.70;14.10;;;;;;;;;;5012924;28;20038;-66
2023/08/19 12:25:52;;;;;;;14.05;12.75;;;;;;;;;;5014230;28;20088;-65
2023/08/19 12:28:18;;;;;;;13.57;12.35;;;;;;;;;;5015790;28;20069;-65
2023/08/19 12:30:44;;;;;;;13.43;12.07;;;;;;;;;;5016378;28;20045;-65
2023/08/19 12:33:10;;;;;;;11.10;9.88;;;;;;;;;;5012313;28;20049;-65
2023/08/19 12:35:36;;;;;;;12.82;11.25;;;;;;;;;;5013578;28;20052;-65
2023/08/19 12:38:05;;;;;;;14.00;11.52;;;;;;;;;;5014996;28;20042;-65
2023/08/19 12:40:32;;;;;;;12.68;11.38;;;;;;;;;;5016030;28;20762;-65
2023/08/19 12:42:58;;;;;;;9.35;8.55;;;;;;;;;;5016241;28;20104;-65
2023/08/19 12:45:24;;;;;;;12.23;11.00;;;;;;;;;;5012150;28;20511;-65
2023/08/19 12:47:50;;;;;;;12.00;10.40;;;;;;;;;;5012733;28;20054;-65
2023/08/19 12:50:18;;;;;;;9.27;8.45;;;;;;;;;;5012580;28;20088;-65
2023/08/19 12:52:44;;;;;;;10.27;9.27;;;;;;;;;;5012610;28;20057;-65
2023/08/19 12:55:10;;;;;;;7.05;6.45;;;;;;;;;;5012798;28;20034;-65
2023/08/19 12:57:42;;;;;;;8.40;7.53;;;;;;;;;;5015540;28;20088;-65
2023/08/19 13:00:09;;;;;;;8.65;7.85;;;;;;;;;;5014768;28;20111;-65
2023/08/19 13:02:35;;;;;;;6.30;5.80;;;;;;;;;;5013005;28;20574;-65
2023/08/19 13:05:01;;;;;;;4.82;4.43;;;;;;;;;;5013061;28;20033;-65
2023/08/19 13:07:27;;;;;;;5.75;5.22;;;;;;;;;;5013661;28;20174;-65
2023/08/19 13:09:53;;;;;;;3.67;3.38;;;;;;;;;;5015956;28;20063;-65
2023/08/19 13:12:19;;;;;;;4.35;3.97;;;;;;;;;;5015827;28;20073;-65
2023/08/19 13:14:45;;;;;;;4.50;3.85;;;;;;;;;;5012832;28;20124;-65
2023/08/19 13:17:11;;;;;;;5.88;5.05;;;;;;;;;;5012318;28;20072;-65
2023/08/19 13:19:37;;;;;;;4.03;3.72;;;;;;;;;;5013539;28;20034;-65
2023/08/19 13:22:03;;;;;;;3.58;3.28;;;;;;;;;;5014812;28;20065;-65
2023/08/19 13:24:29;;;;;;;3.38;3.08;;;;;;;;;;5016335;28;20042;-65
2023/08/19 13:26:55;;;;;;;2.97;2.78;;;;;;;;;;5013264;28;20064;-65
2023/08/19 13:29:22;;;;;;;2.65;2.45;;;;;;;;;;5012265;28;20696;-65
2023/08/19 13:31:48;;;;;;;5.38;4.07;;;;;;;;;;5013490;28;20050;-65
2023/08/19 13:34:14;;;;;;;3.28;2.97;;;;;;;;;;5015763;28;20045;-65
2023/08/19 13:36:40;;;;;;;2.63;2.42;;;;;;;;;;5018742;28;20071;-65
2023/08/19 13:39:06;;;;;;;2.80;2.47;;;;;;;;;;5017070;28;20033;-65
2023/08/19 13:41:32;;;;;;;2.47;2.20;;;;;;;;;;5015672;28;20620;-65
2023/08/19 13:43:59;;;;;;;2.45;1.98;;;;;;;;;;5016798;28;20080;-65
2023/08/19 13:46:25;;;;;;;2.88;2.67;;;;;;;;;;5018949;28;20754;-65
2023/08/19 13:48:51;;;;;;;3.25;2.60;;;;;;;;;;5018585;28;20645;-65
2023/08/19 13:51:18;;;;;;;3.05;2.25;;;;;;;;;;5016774;28;20706;-65
2023/08/19 13:53:46;;;;;;;2.78;2.58;;;;;;;;;;5017498;28;20053;-65
2023/08/19 13:56:12;;;;;;;2.45;1.80;;;;;;;;;;5016802;28;20058;-65
2023/08/19 13:58:38;;;;;;;2.08;1.88;;;;;;;;;;5020243;28;20513;-65
2023/08/19 14:01:04;;;;;;;3.42;2.10;;;;;;;;;;5020361;28;20045;-65
2023/08/19 14:03:31;;;;;;;3.40;2.22;;;;;;;;;;5019594;28;20763;-65
2023/08/19 14:05:57;;;;;;;2.22;2.03;;;;;;;;;;5016595;28;20038;-65
2023/08/19 14:08:23;;;;;;;1.88;1.77;;;;;;;;;;5016128;28;20045;-65
2023/08/19 14:10:51;;;;;;;2.10;1.90;;;;;;;;;;5018468;28;20803;-65
2023/08/19 14:13:18;;;;;;;3.28;1.80;;;;;;;;;;5018832;28;20093;-65
2023/08/19 14:15:44;;;;;;;2.83;1.63;;;;;;;;;;5016872;28;20435;-65
2023/08/19 14:18:10;;;;;;;3.70;1.83;;;;;;;;;;5015168;28;20124;-65
2023/08/19 14:20:36;;;;;;;2.80;1.75;;;;;;;;;;5016826;28;20038;-65
2023/08/19 14:23:03;;;;;;;2.28;1.90;;;;;;;;;;5023037;28;20042;-65
2023/08/19 14:25:29;;;;;;;1.55;1.45;;;;;;;;;;5015835;28;20036;-65
2023/08/19 14:27:55;;;;;;;2.15;1.90;;;;;;;;;;5017966;28;20451;-65
2023/08/19 14:30:21;;;;;;;1.52;1.42;;;;;;;;;;5018809;28;20112;-65
2023/08/19 14:32:48;;;;;;;1.38;1.27;;;;;;;;;;5017892;28;20045;-65
2023/08/19 14:35:14;;;;;;;1.45;1.35;;;;;;;;;;5015108;28;20038;-65
2023/08/19 14:37:40;;;;;;;2.17;1.63;;;;;;;;;;5014093;28;20041;-65
2023/08/19 14:40:07;;;;;;;2.13;1.48;;;;;;;;;;5016265;28;20709;-65
2023/08/19 14:42:33;;;;;;;1.40;1.30;;;;;;;;;;5018339;28;20094;-65